Alvarado, Minnesota
Current Conditions -  °F | °C
As of 1:53 AM on Sunday 26 Oct 2014 (Local Time) from KGFK Reporting Station
Clear Clear  
Wind Chill: 30°   Ceiling: Unl
Heat Index: 34°   Visibility: 10mi
Dew Point: 24°   Wind: 5mph
Humidity: 67%   Direction: 190°S
Pressure: 29.97"   Gusts: NA
Location:  48.19°N, 97°W
Report Text: KGFK 260653Z AUTO 19004KT 10SM CLR 01/M04 A2997 RMK AO2 SLP155 T00111044 TSNO $
Loading
Personal Weather Stations






























Interactive Weather Map
Tropical Storm Tracking
New forecast layout! Learn more

10-Day Weather Forecast

Advertisements
Track Severe Weather on mobile